Time;durP1;ratioP1;P1;durP2;ratioP2;P2;SDS_P1;SDS_P2;PMS_P1;PMS_P2;Temp;Humidity;BMP_temperature;BMP_pressure;BME280_temperature;BME280_humidity;BME280_pressure;Samples;Min_cycle;Max_cycle;Signal;HPM_P1;HPM_P2
2022/10/04 00:01:29;;;;;;;15.23;12.00;;;;;;;11.63;94.51;102318.88;4976896;28;20634;-81
2022/10/04 00:04:24;;;;;;;16.35;11.98;;;;;;;11.75;94.62;102319.03;4979311;28;20038;-81
2022/10/04 00:07:01;;;;;;;16.40;11.63;;;;;;;11.71;94.19;102310.63;4984700;28;20042;-81
2022/10/04 00:09:35;;;;;;;13.80;11.95;;;;;;;11.68;94.40;102311.63;4986159;28;20033;-84
2022/10/04 00:12:03;;;;;;;14.05;11.65;;;;;;;11.64;93.93;102297.16;4978058;28;20073;-81
2022/10/04 00:14:34;;;;;;;15.40;12.02;;;;;;;11.69;93.74;102312.44;4985725;28;20101;-82
2022/10/04 00:17:12;;;;;;;15.30;12.13;;;;;;;11.67;94.91;102303.94;4984864;28;20037;-78
2022/10/04 00:19:49;;;;;;;14.23;10.98;;;;;;;11.66;94.24;102297.91;4985988;28;20053;-82
2022/10/04 00:22:17;;;;;;;14.57;11.85;;;;;;;11.63;93.95;102303.28;4983302;28;20496;-82
2022/10/04 00:25:01;;;;;;;14.00;11.65;;;;;;;11.70;93.86;102304.59;4987726;28;20029;-82
2022/10/04 00:27:28;;;;;;;15.95;11.98;;;;;;;11.56;93.88;102291.59;4986984;28;20511;-81
2022/10/04 00:30:02;;;;;;;15.55;11.82;;;;;;;11.60;93.90;102293.09;4986081;28;20046;-82
2022/10/04 00:32:38;;;;;;;13.23;11.52;;;;;;;11.60;93.73;102293.09;4985863;28;20034;-81
2022/10/04 00:35:23;;;;;;;13.30;11.32;;;;;;;11.67;93.72;102286.56;4987037;28;20061;-82
2022/10/04 00:37:58;;;;;;;13.45;10.20;;;;;;;11.58;93.34;102268.94;4980303;28;20078;-82
2022/10/04 00:40:30;;;;;;;14.98;11.57;;;;;;;11.46;93.66;102269.72;4987604;28;20025;-82
2022/10/04 00:42:57;;;;;;;15.48;11.60;;;;;;;11.52;93.56;102274.53;4976804;28;20035;-80
2022/10/04 00:45:47;;;;;;;16.80;11.77;;;;;;;11.51;93.63;102261.63;4969305;28;20019;-80
2022/10/04 00:48:21;;;;;;;15.00;11.80;;;;;;;11.51;94.28;102277.22;4975080;28;20253;-81
2022/10/04 00:51:18;;;;;;;12.90;10.93;;;;;;;11.56;94.11;102270.81;4998970;28;20029;-80
2022/10/04 00:54:19;;;;;;;15.23;11.80;;;;;;;11.56;93.79;102270.81;4974817;28;20030;-82
2022/10/04 00:56:51;;;;;;;15.40;11.55;;;;;;;11.54;93.29;102267.50;4972152;28;20073;-81
2022/10/04 00:59:34;;;;;;;13.10;10.35;;;;;;;11.61;94.13;102257.53;4987263;28;20416;-80
2022/10/04 01:02:31;;;;;;;13.23;11.10;;;;;;;11.58;93.96;102261.16;4982468;28;20042;-80
2022/10/04 01:05:05;;;;;;;13.88;12.38;;;;;;;11.47;93.50;102255.81;4973303;28;20030;-82
2022/10/04 01:07:30;;;;;;;15.00;11.73;;;;;;;11.51;93.36;102252.06;4979194;28;20035;-81
2022/10/04 01:10:04;;;;;;;14.75;11.88;;;;;;;11.44;94.02;102240.41;4979719;28;20030;-79
2022/10/04 01:12:44;;;;;;;14.90;12.23;;;;;;;11.48;94.08;102241.91;4994553;28;20412;-81
2022/10/04 01:15:27;;;;;;;16.00;13.23;;;;;;;11.54;94.32;102245.88;4986736;28;20049;-82
2022/10/04 01:18:05;;;;;;;14.43;12.43;;;;;;;11.51;93.77;102241.69;4974189;28;20049;-80
2022/10/04 01:20:38;;;;;;;16.35;11.93;;;;;;;11.58;93.31;102248.16;4981921;28;20052;-82
2022/10/04 01:23:04;;;;;;;16.00;12.85;;;;;;;11.50;93.80;102234.81;4975674;28;20023;-81
2022/10/04 01:25:48;;;;;;;14.25;12.43;;;;;;;11.48;93.89;102230.66;4976457;28;20061;-81
2022/10/04 01:28:13;;;;;;;15.57;12.50;;;;;;;11.49;93.82;102238.34;4983553;28;20066;-82
2022/10/04 01:30:39;;;;;;;14.60;12.77;;;;;;;11.55;93.86;102243.16;4979639;28;20085;-81
2022/10/04 01:33:05;;;;;;;15.05;13.00;;;;;;;11.51;93.58;102238.25;4976350;28;20027;-82
2022/10/04 01:35:34;;;;;;;15.25;13.32;;;;;;;11.43;93.36;102224.00;4976978;28;20038;-81
2022/10/04 01:38:01;;;;;;;16.45;12.75;;;;;;;11.53;94.38;102233.81;4984342;28;20030;-81
2022/10/04 01:40:27;;;;;;;17.35;13.27;;;;;;;11.50;93.67;102232.22;4980522;28;20515;-81
2022/10/04 01:43:00;;;;;;;17.00;13.07;;;;;;;11.51;94.59;102227.84;4985670;28;20030;-77
2022/10/04 01:45:47;;;;;;;16.27;13.57;;;;;;;11.50;94.43;102226.19;4985261;28;20484;-81
2022/10/04 01:48:19;;;;;;;16.05;13.13;;;;;;;11.54;94.07;102225.09;4996759;28;20032;-81
2022/10/04 01:50:55;;;;;;;14.80;13.05;;;;;;;11.52;93.68;102216.53;4984343;28;20030;-80
2022/10/04 01:53:31;;;;;;;16.75;13.23;;;;;;;11.52;93.86;102217.38;4983726;28;20500;-79
2022/10/04 01:56:06;;;;;;;17.00;13.30;;;;;;;11.44;93.77;102204.03;4969890;28;20086;-81
2022/10/04 01:58:42;;;;;;;16.17;12.75;;;;;;;11.46;93.67;102202.16;4984900;28;20027;-81
2022/10/04 02:01:21;;;;;;;17.95;13.27;;;;;;;11.47;92.93;102198.66;4984756;28;20022;-81
2022/10/04 02:04:11;;;;;;;16.33;13.48;;;;;;;11.50;93.99;102188.06;4974392;28;20058;-81
2022/10/04 02:06:40;;;;;;;18.27;13.60;;;;;;;11.35;92.66;102168.22;4976253;28;20035;-81
2022/10/04 02:09:17;;;;;;;15.98;12.57;;;;;;;11.36;93.27;102173.34;4984119;28;20077;-77
2022/10/04 02:11:46;;;;;;;17.70;13.50;;;;;;;11.40;92.88;102166.19;4978715;28;20123;-79
2022/10/04 02:14:18;;;;;;;15.82;13.10;;;;;;;11.39;92.73;102174.91;4978959;28;20477;-78
2022/10/04 02:16:46;;;;;;;20.98;13.90;;;;;;;11.33;93.20;102175.31;4985680;28;20038;-81
2022/10/04 02:19:13;;;;;;;15.63;13.18;;;;;;;11.13;93.61;102174.81;4984510;28;20117;-81
2022/10/04 02:21:40;;;;;;;15.82;12.95;;;;;;;11.23;93.06;102175.03;4975120;28;20030;-82
2022/10/04 02:24:10;;;;;;;16.08;13.30;;;;;;;11.23;94.23;102169.00;4976221;28;20026;-81
2022/10/04 02:26:35;;;;;;;17.98;13.20;;;;;;;11.17;93.74;102165.88;4978189;28;20548;-81
2022/10/04 02:29:01;;;;;;;16.13;12.95;;;;;;;11.16;94.05;102158.19;4987230;28;20046;-81
2022/10/04 02:34:11;;;;;;;16.60;12.80;;;;;;;11.15;94.04;102156.53;4988726;28;20034;-81
2022/10/04 02:36:38;;;;;;;14.75;12.60;;;;;;;11.17;93.13;102144.25;4987748;28;20034;-79
2022/10/04 02:39:11;;;;;;;16.40;13.30;;;;;;;11.09;92.99;102136.97;4989813;28;20080;-81
2022/10/04 02:41:42;;;;;;;14.82;13.18;;;;;;;11.08;93.08;102132.72;4984297;28;20030;-81
2022/10/04 02:44:14;;;;;;;15.13;12.90;;;;;;;11.04;94.00;102139.00;4987408;28;20042;-80
2022/10/04 02:46:48;;;;;;;17.73;13.52;;;;;;;10.85;93.36;102133.31;4979663;28;20034;-81
2022/10/04 02:49:26;;;;;;;15.40;12.82;;;;;;;10.88;93.96;102130.50;4987557;28;20558;-82
2022/10/04 02:52:00;;;;;;;16.67;12.45;;;;;;;10.94;93.99;102127.53;4989488;28;20046;-81
2022/10/04 02:54:48;;;;;;;14.57;12.90;;;;;;;10.93;93.87;102110.28;4975789;28;20066;-79
2022/10/04 02:57:23;;;;;;;15.95;13.35;;;;;;;10.84;93.64;102095.31;4979493;28;20361;-81
2022/10/04 02:59:50;;;;;;;16.25;11.40;;;;;;;10.96;93.75;102104.94;4988180;28;20038;-81
2022/10/04 03:02:34;;;;;;;17.50;12.60;;;;;;;11.00;93.06;102101.19;4988553;28;20481;-81
2022/10/04 03:05:07;;;;;;;16.35;13.00;;;;;;;10.94;92.96;102095.56;4986493;28;20149;-78
2022/10/04 03:07:35;;;;;;;16.02;13.27;;;;;;;10.85;92.71;102108.19;4981947;28;20048;-82
2022/10/04 03:10:05;;;;;;;16.47;13.70;;;;;;;10.82;92.63;102105.75;4984958;28;20019;-77
2022/10/04 03:12:32;;;;;;;16.35;12.75;;;;;;;10.84;92.69;102108.28;4989154;28;20027;-80
2022/10/04 03:15:00;;;;;;;16.70;13.10;;;;;;;10.78;92.47;102095.66;4983049;28;20065;-82
2022/10/04 03:17:25;;;;;;;15.68;12.90;;;;;;;10.77;92.47;102100.03;4986098;28;20101;-82
2022/10/04 03:19:51;;;;;;;15.02;12.68;;;;;;;10.82;92.70;102107.53;4988264;28;20156;-82
2022/10/04 03:22:17;;;;;;;18.52;14.25;;;;;;;10.66;92.92;102106.81;4989213;28;20073;-81
2022/10/04 03:24:52;;;;;;;15.55;13.45;;;;;;;10.68;92.81;102102.38;4976984;28;20461;-80
2022/10/04 03:27:23;;;;;;;17.40;12.52;;;;;;;10.74;92.76;102083.84;4979440;28;20477;-82
2022/10/04 03:29:49;;;;;;;17.05;12.05;;;;;;;10.76;92.48;102094.94;4980417;28;20121;-80
2022/10/04 03:32:17;;;;;;;16.00;13.43;;;;;;;10.71;93.99;102094.38;4988205;28;20236;-80
2022/10/04 03:34:58;;;;;;;16.83;12.65;;;;;;;10.71;93.81;102078.81;4976412;28;20400;-82
2022/10/04 03:37:26;;;;;;;17.35;13.20;;;;;;;10.67;93.85;102087.72;4976062;28;20045;-80
2022/10/04 03:39:54;;;;;;;15.48;12.07;;;;;;;10.69;93.14;102091.06;4982070;28;20039;-82
2022/10/04 03:42:33;;;;;;;18.95;13.23;;;;;;;10.69;93.10;102075.50;4970173;28;20031;-81
2022/10/04 03:45:14;;;;;;;17.27;13.95;;;;;;;10.58;94.14;102079.56;4980077;28;20038;-81
2022/10/04 03:47:44;;;;;;;16.95;14.02;;;;;;;10.56;93.65;102076.25;4986743;28;20065;-81
2022/10/04 03:50:27;;;;;;;15.32;12.65;;;;;;;10.61;93.42;102066.44;4978835;28;20076;-81
2022/10/04 03:52:54;;;;;;;16.67;13.82;;;;;;;10.44;93.29;102043.28;4972626;28;20077;-83
2022/10/04 03:55:22;;;;;;;18.08;14.25;;;;;;;10.43;93.53;102046.78;4972128;28;20061;-82
2022/10/04 03:57:47;;;;;;;17.60;12.00;;;;;;;10.49;93.14;102054.19;4971243;28;20453;-82
2022/10/04 04:00:19;;;;;;;16.70;11.98;;;;;;;10.53;93.54;102047.91;4972876;28;20033;-83
2022/10/04 04:02:58;;;;;;;14.32;10.73;;;;;;;10.50;93.27;102055.88;4971079;28;20042;-81
2022/10/04 04:05:28;;;;;;;15.93;13.45;;;;;;;10.38;93.24;102056.63;4969776;28;20081;-82
2022/10/04 04:08:08;;;;;;;15.32;13.20;;;;;;;10.31;93.28;102055.31;4969834;28;20358;-80
2022/10/04 04:10:38;;;;;;;15.60;13.70;;;;;;;10.25;93.55;102056.53;4973191;28;20026;-80
2022/10/04 04:13:40;;;;;;;16.88;10.98;;;;;;;10.39;93.74;102058.31;4971934;28;20050;-82
2022/10/04 04:16:08;;;;;;;15.88;11.65;;;;;;;10.34;93.15;102060.34;4972058;28;20495;-82
2022/10/04 04:18:36;;;;;;;15.70;10.97;;;;;;;10.31;93.27;102063.09;4975731;28;20023;-83
2022/10/04 04:21:04;;;;;;;16.00;13.40;;;;;;;10.14;93.12;102068.44;4975330;28;20754;-82
2022/10/04 04:23:42;;;;;;;17.35;12.18;;;;;;;10.14;93.83;102055.47;4970796;28;20023;-81
2022/10/04 04:26:21;;;;;;;14.93;13.10;;;;;;;10.16;93.97;102057.06;4967345;28;20041;-82
2022/10/04 04:28:50;;;;;;;14.35;11.20;;;;;;;10.22;93.96;102053.28;4975223;28;20081;-81
2022/10/04 04:31:19;;;;;;;;;;;;;;;10.33;92.88;102053.50;4982262;28;20101;-82
2022/10/04 04:33:55;;;;;;;13.10;10.60;;;;;;;10.13;93.25;102046.88;4969873;28;20036;-82
2022/10/04 04:36:20;;;;;;;16.35;13.25;;;;;;;10.00;93.44;102039.00;4969650;28;20038;-82
2022/10/04 04:41:34;;;;;;;16.20;12.73;;;;;;;9.98;93.60;102040.84;4986939;28;20084;-77
2022/10/04 04:44:00;;;;;;;14.30;11.98;;;;;;;10.03;93.28;102036.22;4989097;28;20030;-83
2022/10/04 04:46:27;;;;;;;14.98;11.82;;;;;;;9.97;93.64;102036.56;4981535;28;20070;-81
2022/10/04 04:49:00;;;;;;;15.70;13.48;;;;;;;9.89;93.49;102049.16;4979121;28;20026;-82
2022/10/04 04:51:26;;;;;;;18.98;13.55;;;;;;;9.83;93.94;102039.16;4987632;28;20037;-83
2022/10/04 04:53:54;;;;;;;16.73;11.52;;;;;;;9.88;94.45;102047.50;4974712;28;20030;-83
2022/10/04 04:56:24;;;;;;;15.57;13.63;;;;;;;9.83;93.98;102044.34;4969806;28;20030;-81
2022/10/04 04:58:53;;;;;;;15.02;11.75;;;;;;;9.84;93.96;102036.47;4973062;28;20744;-82
2022/10/04 05:01:44;;;;;;;16.13;13.93;;;;;;;9.85;93.83;102034.72;4973766;28;20041;-80
2022/10/04 05:04:12;;;;;;;17.23;12.40;;;;;;;9.88;93.75;102031.97;4972108;28;20026;-81
2022/10/04 05:07:03;;;;;;;14.85;12.27;;;;;;;9.84;94.21;102033.88;4971013;28;20058;-79
2022/10/04 05:09:29;;;;;;;14.15;11.77;;;;;;;9.81;94.13;102033.25;4977575;28;20050;-79
2022/10/04 05:12:01;;;;;;;16.40;12.13;;;;;;;9.80;93.52;102036.75;4985541;28;20023;-81
2022/10/04 05:14:30;;;;;;;18.50;12.63;;;;;;;9.70;93.55;102038.22;4984731;28;20053;-82
2022/10/04 05:16:56;;;;;;;17.30;12.80;;;;;;;9.57;94.40;102030.31;4972554;28;20053;-82
2022/10/04 05:19:48;;;;;;;13.20;11.07;;;;;;;9.74;94.05;102044.88;4968023;28;20034;-82
2022/10/04 05:22:19;;;;;;;20.52;11.93;;;;;;;9.67;94.19;102044.41;4970361;28;20571;-83
2022/10/04 05:24:50;;;;;;;16.55;12.15;;;;;;;9.64;94.18;102044.59;4972977;28;20500;-83
2022/10/04 05:27:34;;;;;;;17.35;11.63;;;;;;;9.66;94.17;102041.91;4987904;28;20026;-81
2022/10/04 05:30:09;;;;;;;14.93;12.05;;;;;;;9.66;94.19;102052.28;4984912;28;20053;-83
2022/10/04 05:33:02;;;;;;;14.13;10.43;;;;;;;9.72;94.04;102051.91;4978296;28;20045;-82
2022/10/04 05:35:37;;;;;;;16.38;11.73;;;;;;;9.63;93.59;102057.63;4980069;28;20078;-81
2022/10/04 05:38:18;;;;;;;17.95;11.25;;;;;;;9.58;93.79;102053.56;5002052;23;20054;-81
2022/10/04 05:41:14;;;;;;;16.88;12.02;;;;;;;9.63;93.59;102055.03;4987490;28;20038;-83
2022/10/04 05:43:51;;;;;;;14.45;11.00;;;;;;;9.61;93.94;102054.28;4996466;28;20120;-84
2022/10/04 05:46:19;;;;;;;15.65;10.25;;;;;;;9.61;93.63;102054.28;4997683;28;20033;-83
2022/10/04 05:48:47;;;;;;;14.55;11.75;;;;;;;9.49;94.20;102045.47;4993219;28;20033;-83
2022/10/04 05:51:50;;;;;;;17.08;10.85;;;;;;;9.61;94.02;102051.69;4986740;28;20466;-83
2022/10/04 05:54:25;;;;;;;12.60;10.20;;;;;;;9.57;93.43;102049.28;4956268;28;20046;-83
2022/10/04 05:57:09;;;;;;;15.00;10.80;;;;;;;9.51;93.82;102052.22;4999442;28;20467;-80
2022/10/04 05:59:44;;;;;;;14.73;10.25;;;;;;;9.50;94.50;102058.31;4994479;28;20443;-80
2022/10/04 06:02:18;;;;;;;15.85;10.40;;;;;;;9.47;93.53;102048.16;5001695;28;20475;-82
2022/10/04 06:05:05;;;;;;;14.93;12.30;;;;;;;9.49;93.93;102056.66;4998730;28;20113;-81
2022/10/04 06:07:39;;;;;;;17.33;10.98;;;;;;;9.53;93.76;102058.16;4996721;28;20037;-81
2022/10/04 06:10:24;;;;;;;15.50;12.63;;;;;;;9.43;94.42;102057.03;5002809;28;20049;-82
2022/10/04 06:13:19;;;;;;;14.38;11.00;;;;;;;9.48;94.34;102054.19;4995520;28;20037;-83
2022/10/04 06:15:47;;;;;;;15.32;10.27;;;;;;;9.46;93.96;102056.00;4979183;28;20484;-82
2022/10/04 06:18:39;;;;;;;15.57;9.07;;;;;;;9.40;94.53;102033.03;4994965;28;20447;-82
2022/10/04 06:21:30;;;;;;;15.32;11.43;;;;;;;9.45;94.77;102054.34;5006242;28;20108;-82
2022/10/04 06:24:13;;;;;;;16.65;11.57;;;;;;;9.42;94.99;102050.19;4999789;28;20049;-84
2022/10/04 06:26:42;;;;;;;15.93;11.65;;;;;;;9.40;95.16;102052.00;4997964;28;20121;-82
2022/10/04 06:29:13;;;;;;;17.42;12.45;;;;;;;9.35;95.37;102038.50;5005840;28;20030;-83
2022/10/04 06:32:00;;;;;;;16.35;11.93;;;;;;;9.42;95.17;102052.78;5006724;28;20433;-83
2022/10/04 06:35:02;;;;;;;17.67;11.52;;;;;;;9.40;95.44;102036.47;5008004;28;20033;-82
2022/10/04 06:37:49;;;;;;;18.20;14.45;;;;;;;9.45;95.67;102047.41;5002188;28;20049;-83
2022/10/04 06:40:36;;;;;;;16.58;11.98;;;;;;;9.49;95.24;102041.13;4984164;28;20116;-83
2022/10/04 06:43:19;;;;;;;15.38;10.85;;;;;;;9.53;94.91;102037.44;5007209;28;20030;-84
2022/10/04 06:46:03;;;;;;;17.95;11.70;;;;;;;9.51;95.82;102039.28;5005598;28;20032;-83
2022/10/04 06:48:55;;;;;;;15.18;10.68;;;;;;;9.57;95.19;102043.25;4989080;28;20353;-84
2022/10/04 06:51:33;;;;;;;18.17;13.30;;;;;;;9.54;95.04;102033.94;4998177;28;20041;-83
2022/10/04 06:54:13;;;;;;;17.67;12.98;;;;;;;9.55;95.85;102040.78;4993765;28;20030;-83
2022/10/04 06:56:49;;;;;;;16.10;13.40;;;;;;;9.46;95.79;102020.59;4990465;28;20033;-83
2022/10/04 06:59:26;;;;;;;17.88;13.27;;;;;;;9.58;95.70;102043.19;5006862;28;20069;-83
2022/10/04 07:01:59;;;;;;;16.27;11.25;;;;;;;9.66;95.45;102039.31;4989738;28;20033;-81
2022/10/04 07:04:38;;;;;;;19.75;12.82;;;;;;;9.64;96.12;102034.25;4975809;28;20030;-81
2022/10/04 07:07:23;;;;;;;15.85;11.00;;;;;;;9.65;95.61;102029.88;5000062;28;21373;-82
2022/10/04 07:10:00;;;;;;;16.60;13.32;;;;;;;9.63;96.13;102023.94;5008012;28;20034;-81
2022/10/04 07:12:27;;;;;;;17.05;12.82;;;;;;;9.61;95.87;102028.41;5006022;28;20590;-83
2022/10/04 07:14:59;;;;;;;16.15;12.60;;;;;;;9.62;95.43;102019.69;4998980;28;20034;-83
2022/10/04 07:17:38;;;;;;;16.38;10.63;;;;;;;9.73;95.22;102020.72;5000881;28;20036;-84
2022/10/04 07:20:14;;;;;;;14.82;10.63;;;;;;;9.74;95.24;102011.19;5002487;28;20068;-84
2022/10/04 07:22:57;;;;;;;15.65;10.63;;;;;;;9.87;95.40;102035.47;5006424;28;20200;-83
2022/10/04 07:25:59;;;;;;;17.50;11.27;;;;;;;9.93;95.31;102024.75;4989509;28;20638;-83
2022/10/04 07:31:26;;;;;;;14.52;10.68;;;;;;;9.99;95.22;102023.53;5007713;28;20113;-84
2022/10/04 07:34:11;;;;;;;14.48;10.93;;;;;;;9.98;95.15;102012.34;5002101;28;20072;-84
2022/10/04 07:36:55;;;;;;;14.52;10.63;;;;;;;10.10;95.58;102026.34;5006638;28;20037;-84
2022/10/04 07:39:39;;;;;;;16.40;13.38;;;;;;;10.08;95.55;102029.00;5005336;28;20045;-83
2022/10/04 07:42:13;;;;;;;19.23;12.20;;;;;;;10.12;95.35;102027.06;4990556;28;20121;-83
2022/10/04 07:44:47;;;;;;;16.35;11.88;;;;;;;10.17;95.19;102031.97;4988530;28;20026;-82
2022/10/04 07:47:24;;;;;;;18.23;13.05;;;;;;;10.23;95.06;102032.47;5005605;28;20034;-82
2022/10/04 07:49:52;;;;;;;15.50;11.70;;;;;;;10.27;94.75;102033.13;4975477;28;20030;-82
2022/10/04 07:52:30;;;;;;;16.65;11.02;;;;;;;10.37;95.49;102029.84;5003449;28;20026;-82
2022/10/04 07:55:10;;;;;;;16.30;10.75;;;;;;;10.49;94.60;102027.41;4997072;28;20060;-82
2022/10/04 07:57:43;;;;;;;17.98;10.45;;;;;;;10.58;94.64;102021.69;5007698;28;20100;-83
2022/10/04 08:00:23;;;;;;;16.63;10.73;;;;;;;10.68;93.92;102022.78;5000619;28;20022;-83
2022/10/04 08:03:27;;;;;;;17.75;10.60;;;;;;;10.75;94.85;102018.03;5000258;28;20467;-82
2022/10/04 08:06:16;;;;;;;15.75;12.65;;;;;;;10.97;94.40;102031.31;5007425;28;20037;-82
2022/10/04 08:09:15;;;;;;;16.73;11.48;;;;;;;10.99;93.09;102013.84;4991702;28;20034;-82
2022/10/04 08:12:01;;;;;;;15.18;12.75;;;;;;;11.14;92.82;102020.66;5006250;28;20053;-83
2022/10/04 08:14:39;;;;;;;16.25;12.63;;;;;;;11.16;92.43;102008.41;5007531;28;20036;-82
2022/10/04 08:17:25;;;;;;;17.15;10.50;;;;;;;11.34;92.11;102026.31;5005264;28;20042;-83
2022/10/04 08:20:21;;;;;;;18.02;11.32;;;;;;;11.42;91.50;102029.25;4990703;28;20124;-83
2022/10/04 08:23:05;;;;;;;15.65;12.30;;;;;;;11.49;90.42;102025.31;5006628;28;20029;-82
2022/10/04 08:25:45;;;;;;;16.52;11.13;;;;;;;11.60;89.66;102028.03;5002544;28;20497;-82
2022/10/04 08:32:03;;;;;;;13.48;11.85;;;;;;;11.80;89.19;102025.84;4989184;28;20049;-83
2022/10/04 08:34:56;;;;;;;14.63;11.98;;;;;;;11.85;89.13;102031.59;5005339;28;20020;-83
2022/10/04 08:37:52;;;;;;;15.55;11.43;;;;;;;11.89;88.34;102007.06;5005655;28;20100;-83
2022/10/04 08:40:23;;;;;;;14.30;10.75;;;;;;;12.05;88.38;102028.50;5006648;28;20041;-84
2022/10/04 08:43:19;;;;;;;15.35;10.75;;;;;;;12.17;87.53;102038.06;5006403;28;20057;-83
2022/10/04 08:46:10;;;;;;;12.30;10.00;;;;;;;12.11;87.42;102015.06;4987451;28;20036;-82
2022/10/04 08:49:17;;;;;;;13.40;9.50;;;;;;;12.27;86.28;102027.00;4990382;28;20129;-83
2022/10/04 08:52:21;;;;;;;13.88;10.20;;;;;;;12.40;86.45;102025.22;4962066;28;20042;-83
2022/10/04 08:55:01;;;;;;;13.43;9.50;;;;;;;12.47;84.92;102018.63;4946146;28;20122;-83
2022/10/04 08:57:30;;;;;;;12.43;9.48;;;;;;;12.59;84.48;102027.34;4946014;28;20043;-83
2022/10/04 09:00:07;;;;;;;12.48;9.18;;;;;;;12.64;84.80;102026.09;4946188;28;20106;-83
2022/10/04 09:02:51;;;;;;;13.80;8.93;;;;;;;12.69;84.36;102023.97;4949956;28;20054;-83
2022/10/04 09:05:28;;;;;;;13.00;9.23;;;;;;;12.80;83.72;102025.00;4950847;28;20054;-82
2022/10/04 09:08:12;;;;;;;13.25;8.50;;;;;;;12.83;83.15;102024.75;4935119;29;20061;-83
2022/10/04 09:10:56;;;;;;;14.02;8.60;;;;;;;12.94;83.93;102028.25;4950901;28;20051;-82
2022/10/04 09:13:55;;;;;;;13.55;8.68;;;;;;;13.11;83.80;102023.59;4932479;28;20145;-83
2022/10/04 09:16:40;;;;;;;12.05;8.30;;;;;;;13.14;83.06;102007.75;4931983;29;20503;-82
2022/10/04 09:19:15;;;;;;;11.98;8.13;;;;;;;13.12;81.68;102010.44;4917375;29;20549;-84
2022/10/04 09:21:46;;;;;;;11.40;8.10;;;;;;;13.25;81.98;102019.06;4943869;28;20171;-83
2022/10/04 09:24:35;;;;;;;11.40;8.00;;;;;;;13.35;80.59;102026.19;4951476;28;20047;-84
2022/10/04 09:27:33;;;;;;;13.75;7.85;;;;;;;13.41;80.23;102028.34;4937094;28;20061;-84
2022/10/04 09:30:18;;;;;;;11.50;7.50;;;;;;;13.23;81.30;101974.03;4960674;28;20050;-83
2022/10/04 09:33:27;;;;;;;11.65;7.07;;;;;;;13.39;80.45;101996.38;4994745;28;20034;-84
2022/10/04 09:36:09;;;;;;;12.65;7.55;;;;;;;13.38;80.15;101979.91;5001619;28;20040;-83
2022/10/04 09:38:46;;;;;;;12.40;7.30;;;;;;;13.53;79.17;101983.09;4995099;28;20049;-83
2022/10/04 09:41:33;;;;;;;11.82;7.65;;;;;;;13.78;79.55;102009.00;5009243;28;20037;-83
2022/10/04 09:44:17;;;;;;;12.60;7.90;;;;;;;13.98;79.46;102004.00;5007518;28;20026;-84
2022/10/04 09:47:23;;;;;;;12.15;7.60;;;;;;;13.97;78.49;102008.41;4995921;28;20427;-83
2022/10/04 09:50:20;;;;;;;12.00;7.95;;;;;;;14.11;79.93;102020.41;5003166;28;20030;-84
2022/10/04 09:53:32;;;;;;;12.43;8.25;;;;;;;13.99;78.73;101990.88;5001685;28;20430;-84
2022/10/04 09:59:50;;;;;;;12.13;8.27;;;;;;;14.24;78.58;102005.44;5005565;28;20368;-84
2022/10/04 10:02:55;;;;;;;11.70;7.57;;;;;;;14.42;78.58;102015.38;5004271;28;20030;-84
2022/10/04 10:05:53;;;;;;;11.82;8.00;;;;;;;14.47;76.56;102010.66;5003838;28;20030;-84
2022/10/04 10:08:45;;;;;;;11.40;7.85;;;;;;;14.48;77.27;102001.88;5003541;28;20034;-82
2022/10/04 10:15:16;;;;;;;11.52;7.47;;;;;;;14.75;76.50;101986.63;4999762;28;20117;-83
2022/10/04 10:17:48;;;;;;;13.43;8.15;;;;;;;14.81;75.16;101993.97;4981640;28;20418;-83
2022/10/04 10:20:54;;;;;;;12.18;8.55;;;;;;;14.93;75.79;101992.13;5007708;28;20033;-82
2022/10/04 10:26:55;;;;;;;11.65;8.07;;;;;;;15.07;74.21;101983.97;5003046;28;20036;-82
2022/10/04 10:36:34;;;;;;;;;;;;;;;;;;;;;
2022/10/04 11:04:02;;;;;;;14.20;8.60;;;;;;;15.86;71.31;101981.72;4870766;29;20040;-84
2022/10/04 11:07:26;;;;;;;14.88;8.32;;;;;;;15.95;71.77;101984.53;4871127;29;20088;-84
2022/10/04 11:28:25;;;;;;;11.13;6.95;;;;;;;16.53;70.16;101956.72;4723747;30;20033;-83
2022/10/04 11:32:21;;;;;;;11.75;6.78;;;;;;;16.36;69.45;101911.06;4731488;30;20063;-83
2022/10/04 11:35:42;;;;;;;11.48;7.07;;;;;;;16.66;68.55;101943.34;4745444;30;20079;-84
2022/10/04 11:38:28;;;;;;;;;;;;;;;16.76;70.55;101940.75;4750455;30;20075;-84
2022/10/04 11:41:48;;;;;;;9.23;6.57;;;;;;;16.40;68.91;101886.28;4775374;29;19921;-83
2022/10/04 11:45:12;;;;;;;10.35;5.88;;;;;;;16.86;66.79;101929.31;4773135;29;20129;-83
2022/10/04 11:48:09;;;;;;;11.43;5.82;;;;;;;16.79;66.95;101896.75;4780857;29;20054;-84
2022/10/04 11:54:49;;;;;;;9.43;5.60;;;;;;;16.87;63.08;101930.97;4797102;29;20117;-85
2022/10/04 11:57:51;;;;;;;9.80;5.15;;;;;;;16.76;65.32;101918.00;4816421;29;20049;-84
2022/10/04 12:00:48;;;;;;;10.85;6.10;;;;;;;16.42;65.22;101867.81;4832588;29;20038;-85
2022/10/04 12:03:52;;;;;;;9.85;5.65;;;;;;;16.79;66.45;101928.19;4836847;29;20128;-83
2022/10/04 12:06:36;;;;;;;9.45;6.97;;;;;;;16.43;66.81;101880.75;4887635;29;20044;-84
2022/10/04 12:09:25;;;;;;;13.00;7.00;;;;;;;16.90;67.08;101925.44;4887840;29;20433;-84
2022/10/04 12:12:37;;;;;;;12.30;6.75;;;;;;;16.87;66.97;101936.22;4895611;29;20049;-85
2022/10/04 12:15:40;;;;;;;11.23;6.53;;;;;;;16.87;66.92;101924.91;4889239;29;20041;-83
2022/10/04 12:18:42;;;;;;;9.18;5.40;;;;;;;16.87;65.02;101917.88;4889519;29;20032;-83
2022/10/04 12:21:16;;;;;;;10.25;5.57;;;;;;;16.64;64.27;101903.38;4887491;29;20136;-85
2022/10/04 12:24:03;;;;;;;9.40;5.40;;;;;;;16.95;64.70;101917.97;4889159;29;20045;-84
2022/10/04 12:27:16;;;;;;;10.02;5.40;;;;;;;17.05;65.07;101923.22;4890341;29;20040;-84
2022/10/04 12:30:12;;;;;;;10.02;5.28;;;;;;;17.23;64.35;101918.06;4930020;28;20619;-84
2022/10/04 12:32:53;;;;;;;10.02;5.78;;;;;;;17.25;63.31;101913.50;4988408;28;20034;-85
2022/10/04 12:35:53;;;;;;;11.30;5.35;;;;;;;17.14;64.04;101880.41;5006022;28;20419;-86
2022/10/04 12:38:48;;;;;;;10.32;5.85;;;;;;;17.18;63.39;101892.28;4994104;28;20037;-84
2022/10/04 12:41:38;;;;;;;10.63;5.90;;;;;;;17.14;62.03;101895.31;5003354;28;20026;-84
2022/10/04 12:44:33;;;;;;;9.40;6.00;;;;;;;17.36;62.63;101892.34;5003740;28;20029;-85
2022/10/04 12:47:43;;;;;;;8.73;5.47;;;;;;;17.14;63.73;101848.13;5000822;28;20046;-84
2022/10/04 12:50:25;;;;;;;8.80;5.20;;;;;;;17.47;62.43;101881.69;4979954;28;20041;-84
2022/10/04 12:53:13;;;;;;;10.57;6.15;;;;;;;17.24;61.49;101844.50;5006476;28;20056;-84
2022/10/04 12:55:56;;;;;;;;;;;;;;;17.61;63.36;101887.44;4988473;28;20029;-84
2022/10/04 12:59:02;;;;;;;9.15;5.35;;;;;;;17.25;62.05;101829.59;4997189;28;19913;-85
2022/10/04 13:02:03;;;;;;;8.80;5.22;;;;;;;17.64;63.05;101876.66;4989382;28;20153;-84
2022/10/04 13:05:35;;;;;;;9.25;4.80;;;;;;;17.55;63.08;101852.13;4978553;28;20029;-85
2022/10/04 13:08:48;;;;;;;9.32;5.32;;;;;;;17.50;62.65;101839.44;4888168;29;20080;-85
2022/10/04 13:18:11;;;;;;;7.97;5.13;;;;;;;17.74;62.05;101874.84;4862181;29;20093;-81
2022/10/04 13:20:51;;;;;;;10.27;5.63;;;;;;;17.24;61.49;101812.22;4867825;29;20028;-82
2022/10/04 13:23:25;;;;;;;8.98;5.32;;;;;;;17.55;61.33;101852.13;4867642;29;20049;-82
2022/10/04 13:26:25;;;;;;;9.10;5.35;;;;;;;17.62;60.81;101860.22;4869826;29;20518;-83
2022/10/04 13:29:31;;;;;;;12.85;5.60;;;;;;;17.44;61.05;101863.63;4869322;29;20057;-82
2022/10/04 13:35:56;;;;;;;8.35;5.28;;;;;;;16.98;61.08;101807.63;4861604;29;20048;-83
2022/10/04 13:38:52;;;;;;;8.68;5.00;;;;;;;16.96;61.73;101806.94;4846194;29;20116;-83
2022/10/04 13:42:08;;;;;;;16.33;4.95;;;;;;;17.35;61.75;101861.84;4884369;29;20505;-83
2022/10/04 13:49:00;;;;;;;;;;;;;;;;;;;;;
2022/10/04 13:58:30;;;;;;;9.02;5.25;;;;;;;17.22;62.66;101824.66;4925640;29;20183;-85
2022/10/04 14:01:32;;;;;;;8.27;5.00;;;;;;;17.22;62.33;101814.16;4925409;29;20095;-85